Flight Track Log - Related Links

Times and Time Zones

All times are in EDT time to prevent confusion due to time zone crossing. See the N7484J flight status page for this flight to view local times or setup timezone preferences in your user account.

Time Position Orientation Groundspeed Altitude Reporting Facility
EDT Latitude Longitude Course Direction KTS MPH feet Rate Location/Type
Thu 01:09:10 PM 39.0667 -76.1167 270° West 117 135 1,400  Level Potomac TRACON
Thu 01:10:10 PM 39.0667 -76.1500 270° West 121 139 1,500 100 Climbing Potomac TRACON
Thu 01:11:10 PM 39.0500 -76.2000 247° West 120 138 1,600 50 Climbing Potomac TRACON
Thu 01:12:10 PM 39.0333 -76.2333 237° Southwest 117 135 1,600  Level Potomac TRACON
Thu 01:13:10 PM 39.0333 -76.2833 270° West 121 139 1,600 53 Level Potomac TRACON
Thu 01:14:04 PM 39.0167 -76.3167 237° Southwest 119 137 1,700 52 Climbing Potomac TRACON
Thu 01:15:05 PM 39.0000 -76.3500 237° Southwest 124 143 1,700  Level Potomac TRACON
Thu 01:16:05 PM 39.0000 -76.4000 270° West 125 144 1,700 50 Level Potomac TRACON
Thu 01:17:05 PM 38.9833 -76.4333 237° Southwest 126 145 1,800 50 Climbing Potomac TRACON
Thu 01:18:05 PM 38.9667 -76.4833 247° West 123 142 1,800  Level Potomac TRACON
Thu 01:19:06 PM 38.9667 -76.5167 270° West 125 144 1,800 -545 Level Potomac TRACON
Thu 01:20:06 PM 38.9500 -76.5667 247° West 147 169 700  Descending Potomac TRACON
Thu 01:21:06 PM 38.9500 -76.6000 270° West 116 133 1,800 522 Climbing Potomac TRACON
Thu 01:22:01 PM 38.9667 -76.6333 303° West 129 148 1,700 -52 Descending Potomac TRACON
Thu 01:23:01 PM 38.9667 -76.6833 270° West 130 150 1,700  Level Potomac TRACON
Thu 01:24:02 PM 38.9667 -76.7333 270° West 127 146 1,700  Level Potomac TRACON
Thu 01:25:02 PM 38.9667 -76.7833 270° West 128 147 1,700 -250 Level Potomac TRACON
Thu 01:26:02 PM 38.9667 -76.8333 270° West 140 161 1,200 -300 Descending Potomac TRACON
Thu 01:27:02 PM 38.9667 -76.8667 270° West 133 153 1,100 -400 Descending Potomac TRACON
Thu 01:28:02 PM 38.9667 -76.9167 270° West 104 120 400 -700 Descending Potomac TRACON
Thu 01:30:00 PM 38.9806 -76.9223 258° West  Level Estimated
Thu 01:37:00 PM 38.9806 -76.9223 258° West  Level Estimated
Thu 01:38:00 PM 38.9806 -76.9223 258° West  Level Estimated
Thu 01:39:00 PM 38.9806 -76.9223 258° West  Level Estimated

Login

Don't have an account? Register now (free) for customized features, flight alerts, and more!